»·PEaware :: N734TD KOTH-KMFR

N734TD :: KOTH-KMFR

FLIGHT INFORMATION

Flight Status: Arrived
Operator: Privately registered:
United States
More flights under this callsign
Pilot: Chris S. (2433)
Aircraft: SOCATA TBM-900
(TBM9)
More flights by this aircraft type
Origin: KOTH North Bend Mun
United States
Destination: KMFR Rogue Valley Intl-Medford
United States
More flights between these airports :: More routes between these airports
Route: OTH6 DEROY V287 OED
File this flight plan on PilotEdge
Remarks:
Altitude:
(Current/Filed)
13,000ft
Speed:
(Current/Filed)
250kts
Departed: 09-Sep-19 01:26 PM
Arrived: 09-Sep-19 02:01 PM
Distance/Time
Traveled:
87nm/0:35
Distance/Time
To Go:
Arrived

Flight Plot

Page will automatically refresh every two minutes.


Map Options




Map Legend


Flown Route
Filed Route
Departure Airport
Arrival Airport
Navaid (VOR, NDB)
Fix

Horizontal Profiles

Position Reports

Time Latitude Longitude Heading Altitude Ground
Speed
09-Sep-19 13:16 43.417656 -124.247012 148 22ft 0kts
09-Sep-19 13:17 43.417656 -124.247012 148 22ft 0kts
09-Sep-19 13:18 43.417656 -124.247012 148 22ft 0kts
09-Sep-19 13:19 43.417656 -124.247012 148 22ft 0kts
09-Sep-19 13:20 43.417656 -124.247012 148 22ft 0kts
09-Sep-19 13:21 43.417656 -124.247012 148 22ft 0kts
09-Sep-19 13:22 43.418397 -124.246521 330 19ft 11kts
09-Sep-19 13:23 43.420776 -124.242748 60 8ft 17kts
09-Sep-19 13:24 43.422370 -124.241912 242 6ft 22kts
09-Sep-19 13:25 43.409782 -124.277885 245 1512ft 129kts
09-Sep-19 13:26 43.406234 -124.322019 317 4170ft 135kts
09-Sep-19 13:27 43.430296 -124.298425 118 6593ft 146kts
09-Sep-19 13:28 43.417106 -124.245530 99 8950ft 156kts
09-Sep-19 13:29 43.415449 -124.175944 98 10771ft 191kts
09-Sep-19 13:30 43.381379 -124.121770 138 12721ft 192kts
09-Sep-19 13:31 43.337566 -124.061862 137 13021ft 250kts
09-Sep-19 13:32 43.285710 -123.991003 137 13004ft 269kts
09-Sep-19 13:33 43.231924 -123.917743 137 13002ft 276kts
09-Sep-19 13:34 43.176795 -123.842856 137 13001ft 279kts
09-Sep-19 13:35 43.121404 -123.767825 137 13005ft 279kts
09-Sep-19 13:36 43.065710 -123.692588 137 13008ft 280kts
09-Sep-19 13:37 43.010173 -123.617769 137 13009ft 280kts
09-Sep-19 13:38 42.954486 -123.542954 137 13010ft 281kts
09-Sep-19 13:39 42.898812 -123.468358 137 13010ft 282kts
09-Sep-19 13:40 42.842200 -123.392711 137 13010ft 283kts
09-Sep-19 13:41 42.785852 -123.317614 137 13008ft 283kts
09-Sep-19 13:42 42.732500 -123.239247 118 12889ft 289kts
09-Sep-19 13:43 42.693595 -123.138115 118 11515ft 306kts
09-Sep-19 13:44 42.654418 -123.037243 118 10096ft 294kts
09-Sep-19 13:45 42.608669 -122.946946 126 9006ft 283kts
09-Sep-19 13:46 42.563059 -122.863095 127 9007ft 272kts
09-Sep-19 13:47 42.518046 -122.780575 127 9009ft 270kts
09-Sep-19 13:48 42.473119 -122.698435 127 9009ft 270kts
09-Sep-19 13:49 42.427995 -122.616188 126 8573ft 282kts
09-Sep-19 13:50 42.376523 -122.533670 144 7299ft 272kts
09-Sep-19 13:51 42.308077 -122.507990 185 7313ft 251kts
09-Sep-19 13:52 42.245976 -122.543524 223 7319ft 242kts
09-Sep-19 13:53 42.212715 -122.621827 260 6015ft 234kts
09-Sep-19 13:54 42.218608 -122.703617 293 5031ft 225kts
09-Sep-19 13:55 42.247051 -122.770874 302 3789ft 183kts
09-Sep-19 13:56 42.277966 -122.816771 324 3270ft 160kts
09-Sep-19 13:57 42.313807 -122.841105 341 2387ft 127kts
09-Sep-19 13:58 42.341263 -122.855832 340 1810ft 91kts
09-Sep-19 13:59 42.363614 -122.867343 342 1353ft 80kts
09-Sep-19 14:00 42.373545 -122.872638 279 1312ft 12kts
09-Sep-19 14:01 42.374717 -122.874764 338 1309ft 11kts
09-Sep-19 14:02 42.377981 -122.876464 338 1306ft 11kts
09-Sep-19 14:03 42.379645 -122.879022 338 1303ft 1kts
09-Sep-19 14:04 42.379650 -122.879025 339 1303ft 0kts
09-Sep-19 14:05 42.379650 -122.879025 339 1303ft 0kts

Navigation Log

Ident Type
Flight plan parsing failed, navigation log unavailable